Time,TemperatureF,DewpointF,PressureIn,WindDirection,WindDirectionDegrees,WindSpeedMPH,WindSpeedGustMPH,Humidity,HourlyPrecipIn,Conditions,Clouds,dailyrainin,SoftwareType,DateUTC
2013-12-29 00:02:00,34.2,22.1,30.44,ESE,113,0.0,0.2,61,0.00,,,0.00,WUHU216HW,2013-12-29 08:02:00,
2013-12-29 00:07:00,34.4,22.3,30.44,East,90,0.0,0.2,61,0.00,,,0.00,WUHU216HW,2013-12-29 08:07:00,
2013-12-29 00:12:00,34.6,22.5,30.44,SSE,158,0.0,0.2,61,0.00,,,0.00,WUHU216HW,2013-12-29 08:12:00,
2013-12-29 00:17:00,34.7,22.7,30.44,SSE,158,0.0,0.2,61,0.00,,,0.00,WUHU216HW,2013-12-29 08:17:00,
2013-12-29 00:22:00,34.9,22.9,30.43,East,90,0.2,0.2,61,0.00,,,0.00,WUHU216HW,2013-12-29 08:22:00,
2013-12-29 00:27:00,34.9,22.9,30.43,ESE,113,0.0,0.4,61,0.00,,,0.00,WUHU216HW,2013-12-29 08:27:00,
2013-12-29 00:32:00,34.9,22.9,30.43,ESE,113,0.0,0.4,61,0.00,,,0.00,WUHU216HW,2013-12-29 08:32:00,
2013-12-29 00:37:00,34.9,22.9,30.43,East,90,0.0,0.2,61,0.00,,,0.00,WUHU216HW,2013-12-29 08:37:00,
2013-12-29 00:42:00,34.7,22.7,30.42,East,90,0.0,0.2,61,0.00,,,0.00,WUHU216HW,2013-12-29 08:42:00,
2013-12-29 00:47:00,34.4,22.3,30.42,East,90,0.0,0.0,61,0.00,,,0.00,WUHU216HW,2013-12-29 08:47:00,
2013-12-29 00:52:00,34.2,22.1,30.42,East,90,0.0,0.0,61,0.00,,,0.00,WUHU216HW,2013-12-29 08:52:00,
2013-12-29 00:57:00,34.0,22.0,30.42,East,90,0.0,0.0,61,0.00,,,0.00,WUHU216HW,2013-12-29 08:57:00,
2013-12-29 01:02:00,34.0,22.0,30.42,NE,45,0.0,0.0,61,0.00,,,0.00,WUHU216HW,2013-12-29 09:02:00,
2013-12-29 01:07:00,33.8,21.8,30.43,South,180,0.0,0.2,61,0.00,,,0.00,WUHU216HW,2013-12-29 09:07:00,
2013-12-29 01:12:00,33.8,21.8,30.43,SSW,203,0.4,0.4,61,0.00,,,0.00,WUHU216HW,2013-12-29 09:12:00,
2013-12-29 01:17:00,33.7,21.6,30.43,SSW,203,0.0,0.4,61,0.00,,,0.00,WUHU216HW,2013-12-29 09:17:00,
2013-12-29 01:22:00,33.5,21.4,30.44,South,180,0.2,0.4,61,0.00,,,0.00,WUHU216HW,2013-12-29 09:22:00,
2013-12-29 01:27:00,33.3,21.3,30.44,SSE,158,0.0,0.7,61,0.00,,,0.00,WUHU216HW,2013-12-29 09:27:00,
2013-12-29 01:32:00,33.1,21.2,30.44,SW,225,0.2,0.7,61,0.00,,,0.00,WUHU216HW,2013-12-29 09:32:00,
2013-12-29 01:37:00,33.1,21.2,30.44,SW,225,0.0,0.4,61,0.00,,,0.00,WUHU216HW,2013-12-29 09:37:00,
2013-12-29 01:42:00,33.1,21.2,30.44,SW,225,0.0,0.2,61,0.00,,,0.00,WUHU216HW,2013-12-29 09:42:00,
2013-12-29 01:47:00,33.1,21.2,30.44,SW,225,0.2,0.4,61,0.00,,,0.00,WUHU216HW,2013-12-29 09:47:00,
2013-12-29 01:52:00,33.1,21.2,30.43,SW,225,0.0,0.4,61,0.00,,,0.00,WUHU216HW,2013-12-29 09:52:00,
2013-12-29 01:57:00,33.1,21.2,30.43,SW,225,0.0,0.2,61,0.00,,,0.00,WUHU216HW,2013-12-29 09:57:00,
2013-12-29 02:02:00,32.8,20.8,30.43,SW,225,0.0,0.0,61,0.00,,,0.00,WUHU216HW,2013-12-29 10:02:00,
2013-12-29 02:08:00,32.6,20.6,30.43,SW,225,0.0,0.0,61,0.00,,,0.00,WUHU216HW,2013-12-29 10:08:00,
2013-12-29 02:13:00,32.6,21.0,30.44,SW,225,0.0,0.0,62,0.00,,,0.00,WUHU216HW,2013-12-29 10:13:00,
2013-12-29 02:18:00,32.4,20.9,30.43,SW,225,0.0,0.0,62,0.00,,,0.00,WUHU216HW,2013-12-29 10:18:00,
2013-12-29 02:23:00,32.4,20.9,30.43,SW,225,0.0,0.0,62,0.00,,,0.00,WUHU216HW,2013-12-29 10:23:00,
2013-12-29 02:28:00,32.2,20.7,30.43,North,0,0.0,0.4,62,0.00,,,0.00,WUHU216HW,2013-12-29 10:28:00,
2013-12-29 02:33:00,32.0,20.5,30.43,NNE,23,0.0,0.4,62,0.00,,,0.00,WUHU216HW,2013-12-29 10:33:00,
2013-12-29 02:38:00,32.0,20.5,30.43,NNE,23,0.0,0.2,62,0.00,,,0.00,WUHU216HW,2013-12-29 10:38:00,
2013-12-29 02:43:00,32.0,20.5,30.43,NNE,23,0.0,0.0,62,0.00,,,0.00,WUHU216HW,2013-12-29 10:43:00,
2013-12-29 02:48:00,32.0,20.5,30.43,NNE,23,0.0,0.0,62,0.00,,,0.00,WUHU216HW,2013-12-29 10:48:00,
2013-12-29 02:53:00,32.0,20.5,30.42,ENE,68,0.2,0.2,62,0.00,,,0.00,WUHU216HW,2013-12-29 10:53:00,
2013-12-29 02:58:00,32.0,20.5,30.42,East,90,0.0,0.4,62,0.00,,,0.00,WUHU216HW,2013-12-29 10:58:00,
2013-12-29 03:03:00,31.9,20.3,30.42,East,90,0.0,0.4,62,0.00,,,0.00,WUHU216HW,2013-12-29 11:03:00,
2013-12-29 03:08:00,31.9,20.3,30.42,East,90,0.0,0.4,62,0.00,,,0.00,WUHU216HW,2013-12-29 11:08:00,
2013-12-29 03:13:00,31.7,20.2,30.42,East,90,0.0,0.0,62,0.00,,,0.00,WUHU216HW,2013-12-29 11:13:00,
2013-12-29 03:18:00,31.7,20.2,30.42,East,90,0.0,0.0,62,0.00,,,0.00,WUHU216HW,2013-12-29 11:18:00,
2013-12-29 03:24:00,32.0,20.5,30.42,East,90,0.0,0.0,62,0.00,,,0.00,WUHU216HW,2013-12-29 11:24:00,
2013-12-29 03:29:00,32.0,20.5,30.42,East,90,0.0,0.0,62,0.00,,,0.00,WUHU216HW,2013-12-29 11:29:00,
2013-12-29 03:35:00,32.2,20.7,30.42,East,90,0.0,0.2,62,0.00,,,0.00,WUHU216HW,2013-12-29 11:35:00,
2013-12-29 03:40:00,32.2,20.7,30.42,East,90,0.0,0.2,62,0.00,,,0.00,WUHU216HW,2013-12-29 11:40:00,
2013-12-29 03:45:00,32.2,20.7,30.42,East,90,0.0,0.2,62,0.00,,,0.00,WUHU216HW,2013-12-29 11:45:00,
2013-12-29 03:50:00,32.2,20.7,30.42,East,90,0.0,0.2,62,0.00,,,0.00,WUHU216HW,2013-12-29 11:50:00,
2013-12-29 03:55:00,32.4,20.5,30.42,East,90,0.0,0.2,61,0.00,,,0.00,WUHU216HW,2013-12-29 11:55:00,
2013-12-29 04:00:00,32.4,20.5,30.42,East,90,0.0,0.4,61,0.00,,,0.00,WUHU216HW,2013-12-29 12:00:00,
2013-12-29 04:05:00,32.4,20.5,30.41,East,90,0.0,0.4,61,0.00,,,0.00,WUHU216HW,2013-12-29 12:05:00,
2013-12-29 04:10:00,32.4,20.5,30.41,East,90,0.4,0.4,61,0.00,,,0.00,WUHU216HW,2013-12-29 12:10:00,
2013-12-29 04:15:00,32.4,20.5,30.41,East,90,0.0,0.4,61,0.00,,,0.00,WUHU216HW,2013-12-29 12:15:00,
2013-12-29 04:20:00,32.4,20.5,30.40,East,90,0.0,0.2,61,0.00,,,0.00,WUHU216HW,2013-12-29 12:20:00,
2013-12-29 04:25:00,32.6,20.6,30.40,East,90,0.0,0.0,61,0.00,,,0.00,WUHU216HW,2013-12-29 12:25:00,
2013-12-29 04:30:00,32.6,20.6,30.40,East,90,0.0,0.4,61,0.00,,,0.00,WUHU216HW,2013-12-29 12:30:00,
2013-12-29 04:35:00,32.6,20.6,30.40,East,90,0.0,0.4,61,0.00,,,0.00,WUHU216HW,2013-12-29 12:35:00,
2013-12-29 04:40:00,32.8,20.8,30.39,East,90,0.0,0.0,61,0.00,,,0.00,WUHU216HW,2013-12-29 12:40:00,
2013-12-29 04:45:00,32.8,20.8,30.39,East,90,0.2,0.2,61,0.00,,,0.00,WUHU216HW,2013-12-29 12:45:00,
2013-12-29 04:50:00,32.8,20.8,30.39,East,90,0.2,0.2,61,0.00,,,0.00,WUHU216HW,2013-12-29 12:50:00,
2013-12-29 04:55:00,32.8,20.8,30.39,East,90,0.0,0.4,61,0.00,,,0.00,WUHU216HW,2013-12-29 12:55:00,
2013-12-29 05:00:00,32.8,20.8,30.39,East,90,0.0,0.4,61,0.00,,,0.00,WUHU216HW,2013-12-29 13:00:00,
2013-12-29 05:05:00,32.8,20.8,30.39,East,90,0.0,0.0,61,0.00,,,0.00,WUHU216HW,2013-12-29 13:05:00,
2013-12-29 05:10:00,32.8,20.8,30.39,East,90,0.0,0.0,61,0.00,,,0.00,WUHU216HW,2013-12-29 13:10:00,
2013-12-29 05:15:00,32.8,20.8,30.39,East,90,0.0,0.4,61,0.00,,,0.00,WUHU216HW,2013-12-29 13:15:00,
2013-12-29 05:21:00,32.8,20.8,30.39,East,90,0.0,0.4,61,0.00,,,0.00,WUHU216HW,2013-12-29 13:21:00,
2013-12-29 05:26:00,32.6,20.6,30.38,East,90,0.0,0.2,61,0.00,,,0.00,WUHU216HW,2013-12-29 13:26:00,
2013-12-29 05:31:00,32.6,20.6,30.38,East,90,0.0,0.2,61,0.00,,,0.00,WUHU216HW,2013-12-29 13:31:00,
2013-12-29 05:36:00,32.6,20.6,30.37,East,90,0.0,0.2,61,0.00,,,0.00,WUHU216HW,2013-12-29 13:36:00,
2013-12-29 05:41:00,32.6,20.6,30.37,East,90,0.0,0.2,61,0.00,,,0.00,WUHU216HW,2013-12-29 13:41:00,
2013-12-29 05:46:00,32.4,20.5,30.37,East,90,0.2,0.2,61,0.00,,,0.00,WUHU216HW,2013-12-29 13:46:00,
2013-12-29 05:51:00,32.4,20.5,30.37,East,90,0.0,0.2,61,0.00,,,0.00,WUHU216HW,2013-12-29 13:51:00,
2013-12-29 05:56:00,32.4,20.5,30.36,East,90,0.0,0.2,61,0.00,,,0.00,WUHU216HW,2013-12-29 13:56:00,
2013-12-29 06:01:00,32.4,20.5,30.36,East,90,0.0,0.2,61,0.00,,,0.00,WUHU216HW,2013-12-29 14:01:00,
2013-12-29 06:06:00,32.4,20.5,30.36,East,90,0.0,0.0,61,0.00,,,0.00,WUHU216HW,2013-12-29 14:06:00,
2013-12-29 06:11:00,32.4,20.5,30.36,East,90,0.0,0.0,61,0.00,,,0.00,WUHU216HW,2013-12-29 14:11:00,
2013-12-29 06:16:00,32.6,20.6,30.37,East,90,0.2,0.4,61,0.00,,,0.00,WUHU216HW,2013-12-29 14:16:00,
2013-12-29 06:21:00,32.6,20.6,30.37,East,90,0.0,0.4,61,0.00,,,0.00,WUHU216HW,2013-12-29 14:21:00,
2013-12-29 06:26:00,32.8,20.8,30.37,East,90,0.0,0.2,61,0.00,,,0.00,WUHU216HW,2013-12-29 14:26:00,
2013-12-29 06:31:00,32.8,20.8,30.37,East,90,0.0,0.4,61,0.00,,,0.00,WUHU216HW,2013-12-29 14:31:00,
2013-12-29 06:36:00,32.8,20.8,30.37,East,90,0.0,0.4,61,0.00,,,0.00,WUHU216HW,2013-12-29 14:36:00,
2013-12-29 06:41:00,32.8,20.8,30.37,East,90,0.0,0.0,61,0.00,,,0.00,WUHU216HW,2013-12-29 14:41:00,
2013-12-29 06:46:00,32.8,20.8,30.37,East,90,0.0,0.0,61,0.00,,,0.00,WUHU216HW,2013-12-29 14:46:00,
2013-12-29 06:51:00,32.8,20.8,30.37,East,90,0.0,0.0,61,0.00,,,0.00,WUHU216HW,2013-12-29 14:51:00,
2013-12-29 06:56:00,32.8,20.8,30.37,East,90,0.0,0.0,61,0.00,,,0.00,WUHU216HW,2013-12-29 14:56:00,
2013-12-29 07:01:00,32.8,20.8,30.37,East,90,0.0,0.0,61,0.00,,,0.00,WUHU216HW,2013-12-29 15:01:00,
2013-12-29 07:06:00,32.8,20.8,30.37,East,90,0.0,0.0,61,0.00,,,0.00,WUHU216HW,2013-12-29 15:06:00,
2013-12-29 07:11:00,32.9,21.0,30.37,East,90,0.0,0.0,61,0.00,,,0.00,WUHU216HW,2013-12-29 15:11:00,
2013-12-29 07:16:00,32.9,21.0,30.37,East,90,0.0,0.0,61,0.00,,,0.00,WUHU216HW,2013-12-29 15:16:00,
2013-12-29 07:21:00,32.9,21.0,30.37,East,90,0.0,0.0,61,0.00,,,0.00,WUHU216HW,2013-12-29 15:21:00,
2013-12-29 07:27:00,33.1,21.2,30.38,East,90,0.0,0.0,61,0.00,,,0.00,WUHU216HW,2013-12-29 15:27:00,
2013-12-29 07:32:00,33.3,21.3,30.37,East,90,0.0,0.0,61,0.00,,,0.00,WUHU216HW,2013-12-29 15:32:00,
2013-12-29 07:37:00,33.3,21.3,30.37,East,90,0.0,0.0,61,0.00,,,0.00,WUHU216HW,2013-12-29 15:37:00,
2013-12-29 07:42:00,33.3,21.3,30.37,East,90,0.0,0.0,61,0.00,,,0.00,WUHU216HW,2013-12-29 15:42:00,
2013-12-29 07:47:00,33.5,21.1,30.37,East,90,0.0,0.0,60,0.00,,,0.00,WUHU216HW,2013-12-29 15:47:00,
2013-12-29 07:52:00,33.5,21.1,30.38,East,90,0.0,0.0,60,0.00,,,0.00,WUHU216HW,2013-12-29 15:52:00,
2013-12-29 07:57:00,33.7,21.2,30.38,East,90,0.0,0.0,60,0.00,,,0.00,WUHU216HW,2013-12-29 15:57:00,
2013-12-29 08:02:00,33.7,21.2,30.38,East,90,0.0,0.0,60,0.00,,,0.00,WUHU216HW,2013-12-29 16:02:00,
2013-12-29 08:07:00,33.7,21.2,30.39,East,90,0.0,0.0,60,0.00,,,0.00,WUHU216HW,2013-12-29 16:07:00,
2013-12-29 08:13:00,33.7,21.2,30.39,East,90,0.0,0.0,60,0.00,,,0.00,WUHU216HW,2013-12-29 16:13:00,
2013-12-29 08:18:00,33.7,21.2,30.39,East,90,0.0,0.0,60,0.00,,,0.00,WUHU216HW,2013-12-29 16:18:00,
2013-12-29 08:23:00,33.8,21.4,30.40,East,90,0.0,0.0,60,0.00,,,0.00,WUHU216HW,2013-12-29 16:23:00,
2013-12-29 08:28:00,33.8,21.4,30.39,East,90,0.0,0.0,60,0.00,,,0.00,WUHU216HW,2013-12-29 16:28:00,
2013-12-29 08:33:00,34.0,21.6,30.39,East,90,0.0,0.0,60,0.00,,,0.00,WUHU216HW,2013-12-29 16:33:00,
2013-12-29 08:38:00,34.2,21.8,30.40,East,90,0.0,0.0,60,0.00,,,0.00,WUHU216HW,2013-12-29 16:38:00,
2013-12-29 08:43:00,34.4,22.0,30.40,East,90,0.0,0.4,60,0.00,,,0.00,WUHU216HW,2013-12-29 16:43:00,
2013-12-29 08:48:00,34.6,22.1,30.40,East,90,0.0,0.4,60,0.00,,,0.00,WUHU216HW,2013-12-29 16:48:00,
2013-12-29 08:53:00,34.7,21.9,30.40,East,90,0.0,0.4,59,0.00,,,0.00,WUHU216HW,2013-12-29 16:53:00,
2013-12-29 08:58:00,34.7,21.9,30.41,East,90,0.0,0.0,59,0.00,,,0.00,WUHU216HW,2013-12-29 16:58:00,
2013-12-29 09:03:00,34.9,22.5,30.41,ENE,68,0.0,0.0,60,0.00,,,0.00,WUHU216HW,2013-12-29 17:03:00,
2013-12-29 09:08:00,35.1,22.7,30.41,NNW,338,0.0,0.0,60,0.00,,,0.00,WUHU216HW,2013-12-29 17:08:00,
2013-12-29 09:13:00,35.3,22.9,30.42,NNW,338,0.0,0.4,60,0.00,,,0.00,WUHU216HW,2013-12-29 17:13:00,
2013-12-29 09:18:00,35.5,23.0,30.42,NNW,338,0.0,0.4,60,0.00,,,0.00,WUHU216HW,2013-12-29 17:18:00,
2013-12-29 09:23:00,35.6,23.2,30.42,NNW,338,0.2,0.2,60,0.00,,,0.00,WUHU216HW,2013-12-29 17:23:00,
2013-12-29 09:28:00,35.6,23.2,30.42,NE,45,0.0,0.2,60,0.00,,,0.00,WUHU216HW,2013-12-29 17:28:00,
2013-12-29 09:33:00,35.8,23.4,30.42,NE,45,0.0,0.2,60,0.00,,,0.00,WUHU216HW,2013-12-29 17:33:00,
2013-12-29 09:39:00,36.0,23.1,30.42,NE,45,0.0,0.0,59,0.00,,,0.00,WUHU216HW,2013-12-29 17:39:00,
2013-12-29 09:44:00,36.4,23.4,30.42,WNW,293,0.0,0.0,59,0.00,,,0.00,WUHU216HW,2013-12-29 17:44:00,
2013-12-29 09:49:00,36.4,23.4,30.42,SSW,203,0.0,1.1,59,0.00,,,0.00,WUHU216HW,2013-12-29 17:49:00,
2013-12-29 09:54:00,36.5,23.6,30.42,NE,45,0.4,1.1,59,0.00,,,0.00,WUHU216HW,2013-12-29 17:54:00,
2013-12-29 09:59:00,36.4,23.4,30.42,SSW,203,0.0,0.4,59,0.00,,,0.00,WUHU216HW,2013-12-29 17:59:00,
2013-12-29 10:04:00,36.4,23.4,30.42,NE,45,0.0,0.7,59,0.00,,,0.00,WUHU216HW,2013-12-29 18:04:00,
2013-12-29 10:09:00,36.7,23.8,30.42,NE,45,0.0,0.7,59,0.00,,,0.00,WUHU216HW,2013-12-29 18:09:00,
2013-12-29 10:14:00,36.9,24.0,30.41,NE,45,0.0,0.2,59,0.00,,,0.00,WUHU216HW,2013-12-29 18:14:00,
2013-12-29 10:19:00,36.9,24.0,30.41,ENE,68,0.0,0.4,59,0.00,,,0.00,WUHU216HW,2013-12-29 18:19:00,
2013-12-29 10:23:00,37.1,24.1,30.41,ENE,68,0.0,0.4,59,0.00,,,0.00,WUHU216HW,2013-12-29 18:23:00,
2013-12-29 10:28:00,37.1,24.1,30.41,East,90,0.4,0.4,59,0.00,,,0.00,WUHU216HW,2013-12-29 18:28:00,
2013-12-29 10:33:00,37.3,24.2,30.40,NE,45,0.2,0.4,59,0.00,,,0.00,WUHU216HW,2013-12-29 18:33:00,
2013-12-29 10:38:00,37.3,24.2,30.40,NNE,23,0.0,0.7,59,0.00,,,0.00,WUHU216HW,2013-12-29 18:38:00,
2013-12-29 10:43:00,37.4,23.9,30.40,NNW,338,0.0,0.7,58,0.00,,,0.00,WUHU216HW,2013-12-29 18:43:00,
2013-12-29 10:48:00,37.4,23.9,30.40,East,90,0.2,0.9,58,0.00,,,0.00,WUHU216HW,2013-12-29 18:48:00,
2013-12-29 10:54:00,37.6,24.1,30.40,ESE,113,0.2,0.9,58,0.00,,,0.00,WUHU216HW,2013-12-29 18:54:00,
2013-12-29 10:59:00,37.8,24.3,30.40,NE,45,0.0,0.9,58,0.00,,,0.00,WUHU216HW,2013-12-29 18:59:00,
2013-12-29 11:04:00,37.8,24.3,30.40,East,90,0.0,0.9,58,0.00,,,0.00,WUHU216HW,2013-12-29 19:04:00,
2013-12-29 11:09:00,38.0,24.5,30.39,ENE,68,0.0,0.9,58,0.00,,,0.00,WUHU216HW,2013-12-29 19:09:00,
2013-12-29 11:14:00,38.3,24.8,30.39,SE,135,0.4,0.9,58,0.00,,,0.00,WUHU216HW,2013-12-29 19:14:00,
2013-12-29 11:19:00,38.5,24.9,30.39,NE,45,0.0,0.9,58,0.00,,,0.00,WUHU216HW,2013-12-29 19:19:00,
2013-12-29 11:24:00,38.5,24.9,30.39,East,90,0.0,0.4,58,0.00,,,0.00,WUHU216HW,2013-12-29 19:24:00,
2013-12-29 11:29:00,38.7,25.1,30.39,NNE,23,0.0,0.7,58,0.00,,,0.00,WUHU216HW,2013-12-29 19:29:00,
2013-12-29 11:34:00,39.1,25.0,30.39,ENE,68,0.0,0.7,57,0.00,,,0.00,WUHU216HW,2013-12-29 19:34:00,
2013-12-29 11:39:00,39.2,25.2,30.38,WSW,248,0.4,0.4,57,0.00,,,0.00,WUHU216HW,2013-12-29 19:39:00,
2013-12-29 11:44:00,39.2,25.2,30.38,WSW,248,0.0,1.1,57,0.00,,,0.00,WUHU216HW,2013-12-29 19:44:00,
2013-12-29 11:49:00,39.2,25.2,30.38,WSW,248,0.0,1.1,57,0.00,,,0.00,WUHU216HW,2013-12-29 19:49:00,
2013-12-29 11:54:00,39.6,25.5,30.37,SW,225,0.0,0.4,57,0.00,,,0.00,WUHU216HW,2013-12-29 19:54:00,
2013-12-29 11:59:00,39.8,25.7,30.37,WNW,293,0.0,0.4,57,0.00,,,0.00,WUHU216HW,2013-12-29 19:59:00,
2013-12-29 12:04:00,39.8,25.7,30.37,West,270,0.2,0.9,57,0.00,,,0.00,WUHU216HW,2013-12-29 20:04:00,
2013-12-29 12:10:00,40.0,25.8,30.37,WSW,248,0.0,0.9,57,0.00,,,0.00,WUHU216HW,2013-12-29 20:10:00,
2013-12-29 12:15:00,40.0,25.8,30.37,NW,315,0.0,0.7,57,0.00,,,0.00,WUHU216HW,2013-12-29 20:15:00,
2013-12-29 12:20:00,40.0,25.8,30.37,WSW,248,0.0,1.1,57,0.00,,,0.00,WUHU216HW,2013-12-29 20:20:00,
2013-12-29 12:25:00,40.1,26.0,30.36,NW,315,0.2,1.1,57,0.00,,,0.00,WUHU216HW,2013-12-29 20:25:00,
2013-12-29 12:30:00,40.1,26.0,30.36,WNW,293,0.7,1.1,57,0.00,,,0.00,WUHU216HW,2013-12-29 20:30:00,
2013-12-29 12:35:00,40.3,26.2,30.36,SE,135,0.4,1.1,57,0.00,,,0.00,WUHU216HW,2013-12-29 20:35:00,
2013-12-29 12:40:00,40.5,26.4,30.36,WSW,248,0.2,0.7,57,0.00,,,0.00,WUHU216HW,2013-12-29 20:40:00,
2013-12-29 12:45:00,40.7,26.6,30.36,WSW,248,0.0,0.7,57,0.00,,,0.00,WUHU216HW,2013-12-29 20:45:00,
2013-12-29 12:50:00,40.7,26.6,30.36,SSE,158,0.0,0.7,57,0.00,,,0.00,WUHU216HW,2013-12-29 20:50:00,
2013-12-29 12:55:00,40.9,26.7,30.36,West,270,0.0,0.4,57,0.00,,,0.00,WUHU216HW,2013-12-29 20:55:00,
2013-12-29 13:00:00,40.9,26.7,30.36,WSW,248,0.0,0.4,57,0.00,,,0.00,WUHU216HW,2013-12-29 21:00:00,
2013-12-29 13:05:00,40.9,26.7,30.36,WNW,293,0.0,0.0,57,0.00,,,0.00,WUHU216HW,2013-12-29 21:05:00,
2013-12-29 13:10:00,40.9,26.7,30.36,SW,225,0.0,0.4,57,0.00,,,0.00,WUHU216HW,2013-12-29 21:10:00,
2013-12-29 13:16:00,41.0,26.5,30.36,WNW,293,0.0,0.4,56,0.00,,,0.00,WUHU216HW,2013-12-29 21:16:00,
2013-12-29 13:21:00,41.4,26.8,30.36,WNW,293,0.4,0.7,56,0.00,,,0.00,WUHU216HW,2013-12-29 21:21:00,
2013-12-29 13:26:00,41.6,27.0,30.36,West,270,0.0,0.7,56,0.00,,,0.00,WUHU216HW,2013-12-29 21:26:00,
2013-12-29 13:31:00,41.8,27.2,30.36,West,270,0.0,0.4,56,0.00,,,0.00,WUHU216HW,2013-12-29 21:31:00,
2013-12-29 13:36:00,41.8,27.5,30.36,East,90,0.0,0.2,57,0.00,,,0.00,WUHU216HW,2013-12-29 21:36:00,
2013-12-29 13:41:00,41.9,29.4,30.35,ENE,68,0.2,0.9,61,0.00,,,0.00,WUHU216HW,2013-12-29 21:41:00,
2013-12-29 13:46:00,41.8,28.4,30.35,SW,225,0.0,0.9,59,0.00,,,0.00,WUHU216HW,2013-12-29 21:46:00,
2013-12-29 13:51:00,41.9,28.2,30.35,NW,315,0.7,0.9,58,0.00,,,0.00,WUHU216HW,2013-12-29 21:51:00,
2013-12-29 13:56:00,42.1,28.4,30.35,NNE,23,0.2,0.9,58,0.00,,,0.00,WUHU216HW,2013-12-29 21:56:00,
2013-12-29 14:01:00,42.3,29.4,30.35,East,90,0.0,0.9,60,0.00,,,0.00,WUHU216HW,2013-12-29 22:01:00,
2013-12-29 14:06:00,42.5,28.7,30.35,West,270,0.2,0.9,58,0.00,,,0.00,WUHU216HW,2013-12-29 22:06:00,
2013-12-29 14:11:00,42.5,28.3,30.34,West,270,0.0,0.9,57,0.00,,,0.00,WUHU216HW,2013-12-29 22:11:00,
2013-12-29 14:17:00,42.7,28.5,30.34,NNE,23,0.0,0.9,57,0.00,,,0.00,WUHU216HW,2013-12-29 22:17:00,
2013-12-29 14:22:00,42.8,28.6,30.34,NNE,23,0.0,0.7,57,0.00,,,0.00,WUHU216HW,2013-12-29 22:22:00,
2013-12-29 14:27:00,42.8,28.6,30.34,West,270,0.4,0.4,57,0.00,,,0.00,WUHU216HW,2013-12-29 22:27:00,
2013-12-29 14:32:00,42.8,30.2,30.34,ENE,68,0.9,1.1,61,0.00,,,0.00,WUHU216HW,2013-12-29 22:32:00,
2013-12-29 14:37:00,42.8,29.9,30.34,NNE,23,0.0,1.1,60,0.00,,,0.00,WUHU216HW,2013-12-29 22:37:00,
2013-12-29 14:42:00,42.8,29.4,30.34,NNW,338,0.0,0.4,59,0.00,,,0.00,WUHU216HW,2013-12-29 22:42:00,
2013-12-29 14:47:00,42.8,29.4,30.34,WNW,293,0.2,0.4,59,0.00,,,0.00,WUHU216HW,2013-12-29 22:47:00,
2013-12-29 14:52:00,42.8,29.0,30.34,WNW,293,0.0,0.4,58,0.00,,,0.00,WUHU216HW,2013-12-29 22:52:00,
2013-12-29 14:57:00,42.8,29.4,30.34,WNW,293,0.0,0.4,59,0.00,,,0.00,WUHU216HW,2013-12-29 22:57:00,
2013-12-29 15:03:00,42.8,29.9,30.34,ESE,113,0.0,0.2,60,0.00,,,0.00,WUHU216HW,2013-12-29 23:03:00,
2013-12-29 15:08:00,43.0,29.6,30.34,ENE,68,0.0,0.4,59,0.00,,,0.00,WUHU216HW,2013-12-29 23:08:00,
2013-12-29 15:13:00,43.0,30.1,30.34,ENE,68,0.0,0.4,60,0.00,,,0.00,WUHU216HW,2013-12-29 23:13:00,
2013-12-29 15:18:00,43.0,30.1,30.34,SSW,203,0.0,0.0,60,0.00,,,0.00,WUHU216HW,2013-12-29 23:18:00,
2013-12-29 15:23:00,42.8,29.9,30.34,WSW,248,0.0,0.0,60,0.00,,,0.00,WUHU216HW,2013-12-29 23:23:00,
2013-12-29 15:28:00,43.0,29.6,30.33,ENE,68,0.2,0.4,59,0.00,,,0.00,WUHU216HW,2013-12-29 23:28:00,
2013-12-29 15:33:00,43.0,29.6,30.33,ENE,68,0.0,0.4,59,0.00,,,0.00,WUHU216HW,2013-12-29 23:33:00,
2013-12-29 15:38:00,42.8,29.9,30.33,NNE,23,0.0,0.4,60,0.00,,,0.00,WUHU216HW,2013-12-29 23:38:00,
2013-12-29 15:43:00,42.8,29.4,30.33,NNE,23,0.0,0.2,59,0.00,,,0.00,WUHU216HW,2013-12-29 23:43:00,
2013-12-29 15:48:00,42.8,29.4,30.33,NNE,23,0.0,0.0,59,0.00,,,0.00,WUHU216HW,2013-12-29 23:48:00,
2013-12-29 15:53:00,42.7,29.3,30.33,North,0,0.0,0.0,59,0.00,,,0.00,WUHU216HW,2013-12-29 23:53:00,
2013-12-29 15:58:00,42.7,29.3,30.33,West,270,0.0,0.0,59,0.00,,,0.00,WUHU216HW,2013-12-29 23:58:00,
2013-12-29 16:03:00,42.5,29.2,30.33,NNW,338,0.0,0.0,59,0.00,,,0.00,WUHU216HW,2013-12-30 00:03:00,
2013-12-29 16:08:00,42.5,29.2,30.34,North,0,0.0,0.0,59,0.00,,,0.00,WUHU216HW,2013-12-30 00:08:00,
2013-12-29 16:13:00,42.3,29.0,30.34,North,0,0.0,0.0,59,0.00,,,0.00,WUHU216HW,2013-12-30 00:13:00,
2013-12-29 16:18:00,42.1,29.3,30.34,North,0,0.0,0.0,60,0.00,,,0.00,WUHU216HW,2013-12-30 00:18:00,
2013-12-29 16:23:00,41.9,29.1,30.34,North,0,0.0,0.0,60,0.00,,,0.00,WUHU216HW,2013-12-30 00:23:00,
2013-12-29 16:28:00,41.8,28.4,30.34,North,0,0.0,0.0,59,0.00,,,0.00,WUHU216HW,2013-12-30 00:28:00,
2013-12-29 16:33:00,41.8,28.4,30.33,North,0,0.0,0.0,59,0.00,,,0.00,WUHU216HW,2013-12-30 00:33:00,
2013-12-29 16:38:00,41.6,28.3,30.33,NE,45,0.0,0.0,59,0.00,,,0.00,WUHU216HW,2013-12-30 00:38:00,
2013-12-29 16:43:00,41.4,28.2,30.33,NE,45,0.0,0.0,59,0.00,,,0.00,WUHU216HW,2013-12-30 00:43:00,
2013-12-29 16:48:00,41.4,28.2,30.32,NE,45,0.0,0.0,59,0.00,,,0.00,WUHU216HW,2013-12-30 00:48:00,
2013-12-29 16:53:00,41.2,28.0,30.33,NNE,23,0.0,0.0,59,0.00,,,0.00,WUHU216HW,2013-12-30 00:53:00,
2013-12-29 16:58:00,41.0,27.4,30.32,NNE,23,0.0,0.0,58,0.00,,,0.00,WUHU216HW,2013-12-30 00:58:00,
2013-12-29 17:03:00,40.9,27.2,30.33,ENE,68,0.0,0.4,58,0.00,,,0.00,WUHU216HW,2013-12-30 01:03:00,
2013-12-29 17:08:00,40.7,27.0,30.32,ENE,68,0.0,0.4,58,0.00,,,0.00,WUHU216HW,2013-12-30 01:08:00,
2013-12-29 17:13:00,40.7,27.0,30.33,ENE,68,0.0,0.0,58,0.00,,,0.00,WUHU216HW,2013-12-30 01:13:00,
2013-12-29 17:18:00,40.5,26.8,30.32,ENE,68,0.0,0.0,58,0.00,,,0.00,WUHU216HW,2013-12-30 01:18:00,
2013-12-29 17:23:00,40.5,26.8,30.32,ENE,68,0.0,0.0,58,0.00,,,0.00,WUHU216HW,2013-12-30 01:23:00,
2013-12-29 17:28:00,40.3,26.6,30.32,ENE,68,0.0,0.0,58,0.00,,,0.00,WUHU216HW,2013-12-30 01:28:00,
2013-12-29 17:33:00,40.1,26.5,30.33,ENE,68,0.0,0.0,58,0.00,,,0.00,WUHU216HW,2013-12-30 01:33:00,
2013-12-29 17:35:00,40.1,26.5,30.32,ENE,68,0.0,0.0,58,0.00,,,0.00,WUHU216HW,2013-12-30 01:35:00,
2013-12-29 17:40:00,40.0,26.3,30.32,ENE,68,0.0,0.0,58,0.00,,,0.00,WUHU216HW,2013-12-30 01:40:00,
2013-12-29 17:45:00,39.8,26.1,30.32,ENE,68,0.0,0.0,58,0.00,,,0.00,WUHU216HW,2013-12-30 01:45:00,
2013-12-29 17:50:00,39.6,25.9,30.32,ENE,68,0.0,0.0,58,0.00,,,0.00,WUHU216HW,2013-12-30 01:50:00,
2013-12-29 17:55:00,39.2,25.6,30.32,ENE,68,0.0,0.0,58,0.00,,,0.00,WUHU216HW,2013-12-30 01:55:00,
2013-12-29 18:00:00,39.2,25.6,30.32,ENE,68,0.0,0.0,58,0.00,,,0.00,WUHU216HW,2013-12-30 02:00:00,
2013-12-29 18:05:00,39.2,25.6,30.32,ENE,68,0.0,0.0,58,0.00,,,0.00,WUHU216HW,2013-12-30 02:05:00,
2013-12-29 18:10:00,39.1,25.5,30.32,ENE,68,0.0,0.0,58,0.00,,,0.00,WUHU216HW,2013-12-30 02:10:00,
2013-12-29 18:17:00,38.9,24.8,30.31,ENE,68,0.0,0.0,57,0.00,,,0.00,WUHU216HW,2013-12-30 02:17:00,
2013-12-29 18:22:00,38.7,24.7,30.31,ENE,68,0.0,0.0,57,0.00,,,0.00,WUHU216HW,2013-12-30 02:22:00,
2013-12-29 18:27:00,38.7,24.7,30.31,ENE,68,0.0,0.0,57,0.00,,,0.00,WUHU216HW,2013-12-30 02:27:00,
2013-12-29 18:32:00,38.5,24.5,30.32,ENE,68,0.0,0.0,57,0.00,,,0.00,WUHU216HW,2013-12-30 02:32:00,
2013-12-29 18:37:00,38.5,24.5,30.32,ENE,68,0.0,0.0,57,0.00,,,0.00,WUHU216HW,2013-12-30 02:37:00,
2013-12-29 18:42:00,38.5,24.5,30.31,ENE,68,0.0,0.0,57,0.00,,,0.00,WUHU216HW,2013-12-30 02:42:00,
2013-12-29 18:47:00,38.5,24.5,30.32,ENE,68,0.0,0.0,57,0.00,,,0.00,WUHU216HW,2013-12-30 02:47:00,
2013-12-29 18:52:00,38.7,24.7,30.32,ENE,68,0.0,0.0,57,0.00,,,0.00,WUHU216HW,2013-12-30 02:52:00,
2013-12-29 18:57:00,38.5,24.1,30.32,ENE,68,0.0,0.0,56,0.00,,,0.00,WUHU216HW,2013-12-30 02:57:00,
2013-12-29 19:02:00,38.7,24.2,30.32,ENE,68,0.0,0.0,56,0.00,,,0.00,WUHU216HW,2013-12-30 03:02:00,
2013-12-29 19:07:00,38.7,24.2,30.32,ENE,68,0.0,0.0,56,0.00,,,0.00,WUHU216HW,2013-12-30 03:07:00,
2013-12-29 19:14:00,38.7,24.2,30.32,ENE,68,0.0,0.0,56,0.00,,,0.00,WUHU216HW,2013-12-30 03:14:00,
2013-12-29 19:19:00,38.7,24.2,30.32,ENE,68,0.0,0.0,56,0.00,,,0.00,WUHU216HW,2013-12-30 03:19:00,
2013-12-29 19:24:00,38.7,24.2,30.31,ENE,68,0.0,0.0,56,0.00,,,0.00,WUHU216HW,2013-12-30 03:24:00,
2013-12-29 19:29:00,38.7,24.2,30.32,ENE,68,0.0,0.0,56,0.00,,,0.00,WUHU216HW,2013-12-30 03:29:00,
2013-12-29 19:34:00,38.5,24.1,30.32,ENE,68,0.0,0.0,56,0.00,,,0.00,WUHU216HW,2013-12-30 03:34:00,
2013-12-29 19:39:00,38.5,24.1,30.32,ENE,68,0.0,0.0,56,0.00,,,0.00,WUHU216HW,2013-12-30 03:39:00,
2013-12-29 19:44:00,38.5,24.1,30.31,ENE,68,0.0,0.0,56,0.00,,,0.00,WUHU216HW,2013-12-30 03:44:00,
2013-12-29 19:49:00,38.3,24.0,30.31,ENE,68,0.0,0.0,56,0.00,,,0.00,WUHU216HW,2013-12-30 03:49:00,
2013-12-29 19:54:00,38.3,24.0,30.32,ENE,68,0.0,0.0,56,0.00,,,0.00,WUHU216HW,2013-12-30 03:54:00,
2013-12-29 19:59:00,38.3,24.0,30.31,ENE,68,0.0,0.0,56,0.00,,,0.00,WUHU216HW,2013-12-30 03:59:00,
2013-12-29 20:04:00,38.2,23.8,30.31,ENE,68,0.0,0.0,56,0.00,,,0.00,WUHU216HW,2013-12-30 04:04:00,
2013-12-29 20:09:00,38.2,23.8,30.31,ENE,68,0.0,0.0,56,0.00,,,0.00,WUHU216HW,2013-12-30 04:09:00,
2013-12-29 20:14:00,38.2,23.8,30.31,ENE,68,0.0,0.0,56,0.00,,,0.00,WUHU216HW,2013-12-30 04:14:00,
2013-12-29 20:18:00,38.2,23.8,30.31,ENE,68,0.0,0.0,56,0.00,,,0.00,WUHU216HW,2013-12-30 04:18:00,
2013-12-29 20:23:00,38.2,23.8,30.31,ENE,68,0.0,0.0,56,0.00,,,0.00,WUHU216HW,2013-12-30 04:23:00,
2013-12-29 20:28:00,38.2,23.8,30.31,ENE,68,0.0,0.0,56,0.00,,,0.00,WUHU216HW,2013-12-30 04:28:00,
2013-12-29 20:33:00,38.3,23.5,30.31,ENE,68,0.0,0.0,55,0.00,,,0.00,WUHU216HW,2013-12-30 04:33:00,
2013-12-29 20:39:00,38.3,23.5,30.31,ENE,68,0.0,0.0,55,0.00,,,0.00,WUHU216HW,2013-12-30 04:39:00,
2013-12-29 20:44:00,38.3,23.5,30.30,ESE,113,0.0,0.0,55,0.00,,,0.00,WUHU216HW,2013-12-30 04:44:00,
2013-12-29 20:51:00,38.3,23.5,30.30,ESE,113,0.0,0.4,55,0.00,,,0.00,WUHU216HW,2013-12-30 04:51:00,
2013-12-29 20:56:00,38.3,23.5,30.30,ESE,113,0.0,0.2,55,0.00,,,0.00,WUHU216HW,2013-12-30 04:56:00,
2013-12-29 21:01:00,38.3,23.5,30.30,East,90,0.0,0.0,55,0.00,,,0.00,WUHU216HW,2013-12-30 05:01:00,
2013-12-29 21:03:00,38.3,23.5,30.30,East,90,0.0,0.0,55,0.00,,,0.00,WUHU216HW,2013-12-30 05:03:00,
2013-12-29 21:08:00,38.3,23.5,30.30,East,90,0.0,0.0,55,0.00,,,0.00,WUHU216HW,2013-12-30 05:08:00,
2013-12-29 21:14:00,38.3,23.5,30.30,ESE,113,0.0,0.0,55,0.00,,,0.00,WUHU216HW,2013-12-30 05:14:00,
2013-12-29 21:19:00,38.2,23.3,30.30,ESE,113,0.0,0.0,55,0.00,,,0.00,WUHU216HW,2013-12-30 05:19:00,
2013-12-29 21:24:00,38.2,23.3,30.30,ENE,68,0.0,0.0,55,0.00,,,0.00,WUHU216HW,2013-12-30 05:24:00,
2013-12-29 21:29:00,38.0,23.1,30.29,ENE,68,0.0,0.0,55,0.00,,,0.00,WUHU216HW,2013-12-30 05:29:00,
2013-12-29 21:34:00,38.0,23.1,30.30,ENE,68,0.0,0.0,55,0.00,,,0.00,WUHU216HW,2013-12-30 05:34:00,
2013-12-29 21:39:00,37.8,23.1,30.30,ENE,68,0.0,0.0,55,0.00,,,0.00,WUHU216HW,2013-12-30 05:39:00,
2013-12-29 21:44:00,37.8,23.1,30.30,ENE,68,0.0,0.0,55,0.00,,,0.00,WUHU216HW,2013-12-30 05:44:00,
2013-12-29 21:49:00,37.6,22.9,30.30,ENE,68,0.0,0.0,55,0.00,,,0.00,WUHU216HW,2013-12-30 05:49:00,
2013-12-29 21:54:00,37.4,22.7,30.30,ENE,68,0.0,0.0,55,0.00,,,0.00,WUHU216HW,2013-12-30 05:54:00,
2013-12-29 21:59:00,37.4,22.7,30.30,ENE,68,0.0,0.0,55,0.00,,,0.00,WUHU216HW,2013-12-30 05:59:00,
2013-12-29 22:04:00,37.3,22.5,30.30,ENE,68,0.0,0.0,55,0.00,,,0.00,WUHU216HW,2013-12-30 06:04:00,
2013-12-29 22:09:00,37.3,22.5,30.30,ENE,68,0.0,0.0,55,0.00,,,0.00,WUHU216HW,2013-12-30 06:09:00,
2013-12-29 22:14:00,37.3,22.5,30.30,ENE,68,0.0,0.0,55,0.00,,,0.00,WUHU216HW,2013-12-30 06:14:00,
2013-12-29 22:19:00,37.1,22.3,30.30,ENE,68,0.0,0.0,55,0.00,,,0.00,WUHU216HW,2013-12-30 06:19:00,
2013-12-29 22:24:00,37.1,22.3,30.29,ENE,68,0.0,0.0,55,0.00,,,0.00,WUHU216HW,2013-12-30 06:24:00,
2013-12-29 22:29:00,36.9,22.2,30.29,ENE,68,0.0,0.0,55,0.00,,,0.00,WUHU216HW,2013-12-30 06:29:00,
2013-12-29 22:34:00,36.9,22.2,30.29,ENE,68,0.0,0.0,55,0.00,,,0.00,WUHU216HW,2013-12-30 06:34:00,
2013-12-29 22:39:00,36.7,22.1,30.29,ENE,68,0.0,0.0,55,0.00,,,0.00,WUHU216HW,2013-12-30 06:39:00,
2013-12-29 22:44:00,36.7,22.1,30.29,ENE,68,0.0,0.0,55,0.00,,,0.00,WUHU216HW,2013-12-30 06:44:00,
2013-12-29 22:49:00,36.7,22.1,30.29,ENE,68,0.0,0.0,55,0.00,,,0.00,WUHU216HW,2013-12-30 06:49:00,
2013-12-29 22:54:00,36.7,22.1,30.29,ENE,68,0.0,0.0,55,0.00,,,0.00,WUHU216HW,2013-12-30 06:54:00,
2013-12-29 22:59:00,36.5,21.9,30.29,ENE,68,0.0,0.0,55,0.00,,,0.00,WUHU216HW,2013-12-30 06:59:00,
2013-12-29 23:04:00,36.4,21.7,30.29,ENE,68,0.0,0.0,55,0.00,,,0.00,WUHU216HW,2013-12-30 07:04:00,
2013-12-29 23:09:00,36.4,21.7,30.29,ENE,68,0.0,0.0,55,0.00,,,0.00,WUHU216HW,2013-12-30 07:09:00,
2013-12-29 23:14:00,36.4,21.7,30.28,East,90,0.2,0.2,55,0.00,,,0.00,WUHU216HW,2013-12-30 07:14:00,
2013-12-29 23:19:00,36.4,21.7,30.27,ESE,113,0.0,0.4,55,0.00,,,0.00,WUHU216HW,2013-12-30 07:19:00,
2013-12-29 23:24:00,36.4,21.7,30.28,ESE,113,0.0,0.4,55,0.00,,,0.00,WUHU216HW,2013-12-30 07:24:00,
2013-12-29 23:29:00,36.4,21.7,30.28,ESE,113,0.0,0.0,55,0.00,,,0.00,WUHU216HW,2013-12-30 07:29:00,
2013-12-29 23:34:00,36.5,21.9,30.29,WNW,293,0.4,0.7,55,0.00,,,0.00,WUHU216HW,2013-12-30 07:34:00,
2013-12-29 23:39:00,36.5,21.9,30.29,WNW,293,0.0,0.7,55,0.00,,,0.00,WUHU216HW,2013-12-30 07:39:00,
2013-12-29 23:44:00,36.5,21.9,30.29,NW,315,0.0,0.4,55,0.00,,,0.00,WUHU216HW,2013-12-30 07:44:00,
2013-12-29 23:49:00,36.5,21.9,30.29,NW,315,0.0,0.0,55,0.00,,,0.00,WUHU216HW,2013-12-30 07:49:00,
2013-12-29 23:54:00,36.5,21.9,30.29,WNW,293,0.0,0.0,55,0.00,,,0.00,WUHU216HW,2013-12-30 07:54:00,
2013-12-29 23:59:00,36.7,21.6,30.29,WNW,293,0.0,0.0,54,0.00,,,0.00,WUHU216HW,2013-12-30 07:59:00,